sensor_id;sensor_type;location;lat;lon;timestamp;P1;durP1;ratioP1;P2;durP2;ratioP2
3811;SDS011;1921;49.368;11.068;2022-09-17T00:00:40;51.63;;;43.13;;
3811;SDS011;1921;49.368;11.068;2022-09-17T00:03:06;47.60;;;43.30;;
3811;SDS011;1921;49.368;11.068;2022-09-17T00:05:33;46.73;;;42.60;;
3811;SDS011;1921;49.368;11.068;2022-09-17T00:08:04;47.50;;;43.30;;
3811;SDS011;1921;49.368;11.068;2022-09-17T00:10:31;46.90;;;42.67;;
3811;SDS011;1921;49.368;11.068;2022-09-17T00:13:03;47.30;;;43.00;;
3811;SDS011;1921;49.368;11.068;2022-09-17T00:15:30;46.90;;;42.80;;
3811;SDS011;1921;49.368;11.068;2022-09-17T00:17:56;46.70;;;42.60;;
3811;SDS011;1921;49.368;11.068;2022-09-17T00:20:26;47.30;;;43.00;;
3811;SDS011;1921;49.368;11.068;2022-09-17T00:22:52;47.10;;;42.90;;
3811;SDS011;1921;49.368;11.068;2022-09-17T00:25:18;46.80;;;42.70;;
3811;SDS011;1921;49.368;11.068;2022-09-17T00:27:44;47.70;;;43.20;;
3811;SDS011;1921;49.368;11.068;2022-09-17T00:30:11;47.80;;;43.50;;
3811;SDS011;1921;49.368;11.068;2022-09-17T00:32:37;47.20;;;43.00;;
3811;SDS011;1921;49.368;11.068;2022-09-17T00:35:03;57.13;;;43.23;;
3811;SDS011;1921;49.368;11.068;2022-09-17T00:37:30;47.07;;;42.93;;
3811;SDS011;1921;49.368;11.068;2022-09-17T00:39:56;47.83;;;43.50;;
3811;SDS011;1921;49.368;11.068;2022-09-17T00:42:22;47.23;;;43.03;;
3811;SDS011;1921;49.368;11.068;2022-09-17T00:52:42;47.07;;;42.80;;
3811;SDS011;1921;49.368;11.068;2022-09-17T00:55:41;48.13;;;43.80;;
3811;SDS011;1921;49.368;11.068;2022-09-17T00:58:10;47.27;;;43.07;;
3811;SDS011;1921;49.368;11.068;2022-09-17T01:00:39;48.30;;;43.90;;
3811;SDS011;1921;49.368;11.068;2022-09-17T01:03:04;47.40;;;43.10;;
3811;SDS011;1921;49.368;11.068;2022-09-17T01:05:37;47.83;;;43.37;;
3811;SDS011;1921;49.368;11.068;2022-09-17T01:08:59;47.83;;;43.53;;
3811;SDS011;1921;49.368;11.068;2022-09-17T01:14:33;48.40;;;44.00;;
3811;SDS011;1921;49.368;11.068;2022-09-17T01:33:00;48.33;;;43.93;;
3811;SDS011;1921;49.368;11.068;2022-09-17T01:39:15;47.50;;;43.30;;
3811;SDS011;1921;49.368;11.068;2022-09-17T01:42:12;48.43;;;44.03;;
3811;SDS011;1921;49.368;11.068;2022-09-17T01:44:40;48.60;;;43.67;;
3811;SDS011;1921;49.368;11.068;2022-09-17T01:47:30;48.73;;;43.97;;
3811;SDS011;1921;49.368;11.068;2022-09-17T01:50:23;48.83;;;44.23;;
3811;SDS011;1921;49.368;11.068;2022-09-17T01:52:54;47.90;;;43.50;;
3811;SDS011;1921;49.368;11.068;2022-09-17T01:55:23;48.33;;;43.77;;
3811;SDS011;1921;49.368;11.068;2022-09-17T01:58:00;48.60;;;44.10;;
3811;SDS011;1921;49.368;11.068;2022-09-17T02:00:34;49.40;;;44.53;;
3811;SDS011;1921;49.368;11.068;2022-09-17T02:03:08;48.57;;;44.17;;
3811;SDS011;1921;49.368;11.068;2022-09-17T02:05:57;48.33;;;43.57;;
3811;SDS011;1921;49.368;11.068;2022-09-17T02:08:45;47.90;;;43.60;;
3811;SDS011;1921;49.368;11.068;2022-09-17T02:11:19;48.00;;;43.40;;
3811;SDS011;1921;49.368;11.068;2022-09-17T02:16:28;48.30;;;43.60;;
3811;SDS011;1921;49.368;11.068;2022-09-17T02:21:35;49.40;;;44.70;;
3811;SDS011;1921;49.368;11.068;2022-09-17T02:24:15;48.40;;;43.90;;
3811;SDS011;1921;49.368;11.068;2022-09-17T02:26:59;48.07;;;43.60;;
3811;SDS011;1921;49.368;11.068;2022-09-17T02:29:32;48.83;;;44.20;;
3811;SDS011;1921;49.368;11.068;2022-09-17T02:32:02;48.63;;;43.83;;
3811;SDS011;1921;49.368;11.068;2022-09-17T02:34:28;48.40;;;43.90;;
3811;SDS011;1921;49.368;11.068;2022-09-17T02:36:55;47.50;;;43.20;;
3811;SDS011;1921;49.368;11.068;2022-09-17T02:39:24;49.30;;;44.70;;
3811;SDS011;1921;49.368;11.068;2022-09-17T03:02:20;49.33;;;44.43;;
3811;SDS011;1921;49.368;11.068;2022-09-17T03:04:57;49.13;;;44.27;;
3811;SDS011;1921;49.368;11.068;2022-09-17T03:07:25;49.60;;;44.60;;
3811;SDS011;1921;49.368;11.068;2022-09-17T03:09:53;49.60;;;44.33;;
3811;SDS011;1921;49.368;11.068;2022-09-17T03:12:18;49.33;;;44.47;;
3811;SDS011;1921;49.368;11.068;2022-09-17T03:14:44;49.00;;;44.30;;
3811;SDS011;1921;49.368;11.068;2022-09-17T03:17:10;49.30;;;44.60;;
3811;SDS011;1921;49.368;11.068;2022-09-17T03:19:36;49.20;;;44.50;;
3811;SDS011;1921;49.368;11.068;2022-09-17T03:22:02;49.30;;;44.70;;
3811;SDS011;1921;49.368;11.068;2022-09-17T03:24:28;49.17;;;44.50;;
3811;SDS011;1921;49.368;11.068;2022-09-17T03:26:54;48.60;;;44.03;;
3811;SDS011;1921;49.368;11.068;2022-09-17T03:29:19;49.53;;;44.53;;
3811;SDS011;1921;49.368;11.068;2022-09-17T03:31:45;49.17;;;44.53;;
3811;SDS011;1921;49.368;11.068;2022-09-17T03:34:11;49.00;;;44.13;;
3811;SDS011;1921;49.368;11.068;2022-09-17T03:36:37;48.43;;;43.93;;
3811;SDS011;1921;49.368;11.068;2022-09-17T03:39:02;48.60;;;44.00;;
3811;SDS011;1921;49.368;11.068;2022-09-17T03:41:28;49.13;;;44.23;;
3811;SDS011;1921;49.368;11.068;2022-09-17T03:43:54;49.73;;;44.73;;
3811;SDS011;1921;49.368;11.068;2022-09-17T03:46:20;49.43;;;44.80;;
3811;SDS011;1921;49.368;11.068;2022-09-17T03:48:45;48.70;;;44.00;;
3811;SDS011;1921;49.368;11.068;2022-09-17T03:51:11;49.17;;;44.53;;
3811;SDS011;1921;49.368;11.068;2022-09-17T03:53:37;48.63;;;44.03;;
3811;SDS011;1921;49.368;11.068;2022-09-17T03:56:04;48.53;;;43.93;;
3811;SDS011;1921;49.368;11.068;2022-09-17T03:58:31;49.83;;;45.03;;
3811;SDS011;1921;49.368;11.068;2022-09-17T04:00:58;49.07;;;44.20;;
3811;SDS011;1921;49.368;11.068;2022-09-17T04:03:24;50.80;;;45.50;;
3811;SDS011;1921;49.368;11.068;2022-09-17T04:05:52;49.87;;;45.00;;
3811;SDS011;1921;49.368;11.068;2022-09-17T04:08:18;48.90;;;44.30;;
3811;SDS011;1921;49.368;11.068;2022-09-17T04:10:45;49.20;;;44.40;;
3811;SDS011;1921;49.368;11.068;2022-09-17T04:13:12;49.03;;;44.00;;
3811;SDS011;1921;49.368;11.068;2022-09-17T04:15:40;49.80;;;45.00;;
3811;SDS011;1921;49.368;11.068;2022-09-17T04:18:07;48.27;;;43.77;;
3811;SDS011;1921;49.368;11.068;2022-09-17T04:20:32;50.03;;;44.80;;
3811;SDS011;1921;49.368;11.068;2022-09-17T04:22:59;49.37;;;44.67;;
3811;SDS011;1921;49.368;11.068;2022-09-17T04:25:25;49.40;;;44.60;;
3811;SDS011;1921;49.368;11.068;2022-09-17T04:27:51;49.27;;;44.27;;
3811;SDS011;1921;49.368;11.068;2022-09-17T04:30:17;48.30;;;43.73;;
3811;SDS011;1921;49.368;11.068;2022-09-17T04:32:43;48.80;;;44.10;;
3811;SDS011;1921;49.368;11.068;2022-09-17T04:35:09;50.00;;;45.30;;
3811;SDS011;1921;49.368;11.068;2022-09-17T04:37:36;49.33;;;44.00;;
3811;SDS011;1921;49.368;11.068;2022-09-17T04:40:03;50.20;;;45.07;;
3811;SDS011;1921;49.368;11.068;2022-09-17T04:42:29;49.10;;;44.53;;
3811;SDS011;1921;49.368;11.068;2022-09-17T04:44:55;48.63;;;44.10;;
3811;SDS011;1921;49.368;11.068;2022-09-17T04:47:21;48.57;;;44.07;;
3811;SDS011;1921;49.368;11.068;2022-09-17T04:49:48;48.40;;;43.90;;
3811;SDS011;1921;49.368;11.068;2022-09-17T04:52:14;48.83;;;44.10;;
3811;SDS011;1921;49.368;11.068;2022-09-17T04:54:40;48.53;;;43.93;;
3811;SDS011;1921;49.368;11.068;2022-09-17T04:57:05;48.90;;;44.00;;
3811;SDS011;1921;49.368;11.068;2022-09-17T04:59:33;49.10;;;44.50;;
3811;SDS011;1921;49.368;11.068;2022-09-17T05:01:59;49.40;;;44.50;;
3811;SDS011;1921;49.368;11.068;2022-09-17T05:04:25;49.40;;;44.40;;
3811;SDS011;1921;49.368;11.068;2022-09-17T05:06:51;49.07;;;43.93;;
3811;SDS011;1921;49.368;11.068;2022-09-17T05:09:17;48.87;;;44.27;;
3811;SDS011;1921;49.368;11.068;2022-09-17T05:11:42;49.03;;;44.43;;
3811;SDS011;1921;49.368;11.068;2022-09-17T05:14:08;49.43;;;44.53;;
3811;SDS011;1921;49.368;11.068;2022-09-17T05:16:34;49.97;;;44.60;;
3811;SDS011;1921;49.368;11.068;2022-09-17T05:18:59;48.63;;;44.03;;
3811;SDS011;1921;49.368;11.068;2022-09-17T05:21:25;48.50;;;44.00;;
3811;SDS011;1921;49.368;11.068;2022-09-17T05:23:51;49.20;;;44.50;;
3811;SDS011;1921;49.368;11.068;2022-09-17T05:26:17;49.13;;;44.33;;
3811;SDS011;1921;49.368;11.068;2022-09-17T05:28:43;48.30;;;43.80;;
3811;SDS011;1921;49.368;11.068;2022-09-17T05:31:08;48.57;;;43.97;;
3811;SDS011;1921;49.368;11.068;2022-09-17T05:33:34;47.90;;;43.47;;
3811;SDS011;1921;49.368;11.068;2022-09-17T05:36:00;49.10;;;44.40;;
3811;SDS011;1921;49.368;11.068;2022-09-17T05:38:26;50.33;;;45.00;;
3811;SDS011;1921;49.368;11.068;2022-09-17T05:40:52;48.40;;;43.90;;
3811;SDS011;1921;49.368;11.068;2022-09-17T05:43:17;48.83;;;44.23;;
3811;SDS011;1921;49.368;11.068;2022-09-17T05:45:43;49.37;;;44.60;;
3811;SDS011;1921;49.368;11.068;2022-09-17T05:48:13;48.87;;;44.27;;
3811;SDS011;1921;49.368;11.068;2022-09-17T05:50:39;48.03;;;43.53;;
3811;SDS011;1921;49.368;11.068;2022-09-17T05:53:06;48.30;;;43.90;;
3811;SDS011;1921;49.368;11.068;2022-09-17T05:55:36;47.93;;;43.50;;
3811;SDS011;1921;49.368;11.068;2022-09-17T05:58:09;49.00;;;44.30;;
3811;SDS011;1921;49.368;11.068;2022-09-17T06:00:40;48.00;;;43.50;;
3811;SDS011;1921;49.368;11.068;2022-09-17T06:03:07;48.10;;;43.70;;
3811;SDS011;1921;49.368;11.068;2022-09-17T06:05:36;48.30;;;43.90;;
3811;SDS011;1921;49.368;11.068;2022-09-17T06:08:02;48.43;;;43.83;;
3811;SDS011;1921;49.368;11.068;2022-09-17T06:10:28;48.30;;;43.50;;
3811;SDS011;1921;49.368;11.068;2022-09-17T06:12:54;47.80;;;43.47;;
3811;SDS011;1921;49.368;11.068;2022-09-17T06:15:24;48.27;;;43.87;;
3811;SDS011;1921;49.368;11.068;2022-09-17T06:17:51;48.17;;;43.47;;
3811;SDS011;1921;49.368;11.068;2022-09-17T06:20:17;47.83;;;43.50;;
3811;SDS011;1921;49.368;11.068;2022-09-17T06:22:44;47.97;;;43.57;;
3811;SDS011;1921;49.368;11.068;2022-09-17T06:25:10;48.03;;;43.63;;
3811;SDS011;1921;49.368;11.068;2022-09-17T06:27:36;47.60;;;43.30;;
3811;SDS011;1921;49.368;11.068;2022-09-17T06:30:03;48.50;;;43.90;;
3811;SDS011;1921;49.368;11.068;2022-09-17T06:32:30;47.47;;;43.10;;
3811;SDS011;1921;49.368;11.068;2022-09-17T06:34:56;48.07;;;43.67;;
3811;SDS011;1921;49.368;11.068;2022-09-17T06:37:29;47.60;;;43.00;;
3811;SDS011;1921;49.368;11.068;2022-09-17T06:39:56;48.17;;;43.67;;
3811;SDS011;1921;49.368;11.068;2022-09-17T06:42:23;47.87;;;43.37;;
3811;SDS011;1921;49.368;11.068;2022-09-17T06:44:52;47.60;;;43.30;;
3811;SDS011;1921;49.368;11.068;2022-09-17T06:47:18;47.90;;;43.50;;
3811;SDS011;1921;49.368;11.068;2022-09-17T06:49:44;47.57;;;43.27;;
3811;SDS011;1921;49.368;11.068;2022-09-17T06:52:10;47.60;;;43.17;;
3811;SDS011;1921;49.368;11.068;2022-09-17T06:54:36;47.50;;;43.20;;
3811;SDS011;1921;49.368;11.068;2022-09-17T06:57:02;47.60;;;43.20;;
3811;SDS011;1921;49.368;11.068;2022-09-17T06:59:27;47.90;;;43.60;;
3811;SDS011;1921;49.368;11.068;2022-09-17T07:01:53;47.83;;;43.50;;
3811;SDS011;1921;49.368;11.068;2022-09-17T07:04:19;47.77;;;43.40;;
3811;SDS011;1921;49.368;11.068;2022-09-17T07:06:44;47.60;;;43.27;;
3811;SDS011;1921;49.368;11.068;2022-09-17T07:09:10;47.80;;;43.40;;
3811;SDS011;1921;49.368;11.068;2022-09-17T07:11:37;47.53;;;43.23;;
3811;SDS011;1921;49.368;11.068;2022-09-17T07:14:03;47.63;;;43.23;;
3811;SDS011;1921;49.368;11.068;2022-09-17T07:16:29;47.70;;;43.40;;
3811;SDS011;1921;49.368;11.068;2022-09-17T07:18:59;48.13;;;43.73;;
3811;SDS011;1921;49.368;11.068;2022-09-17T07:21:26;47.80;;;43.40;;
3811;SDS011;1921;49.368;11.068;2022-09-17T07:23:52;47.87;;;43.40;;
3811;SDS011;1921;49.368;11.068;2022-09-17T07:26:17;48.33;;;43.87;;
3811;SDS011;1921;49.368;11.068;2022-09-17T07:28:43;47.70;;;43.40;;
3811;SDS011;1921;49.368;11.068;2022-09-17T07:31:10;48.40;;;43.80;;
3811;SDS011;1921;49.368;11.068;2022-09-17T07:33:37;48.47;;;44.00;;
3811;SDS011;1921;49.368;11.068;2022-09-17T07:36:04;47.53;;;43.23;;
3811;SDS011;1921;49.368;11.068;2022-09-17T07:38:34;48.13;;;43.73;;
3811;SDS011;1921;49.368;11.068;2022-09-17T07:41:01;47.70;;;43.30;;
3811;SDS011;1921;49.368;11.068;2022-09-17T07:43:30;47.90;;;43.60;;
3811;SDS011;1921;49.368;11.068;2022-09-17T07:45:58;47.87;;;43.47;;
3811;SDS011;1921;49.368;11.068;2022-09-17T07:48:27;49.50;;;44.30;;
3811;SDS011;1921;49.368;11.068;2022-09-17T07:50:54;48.67;;;43.90;;
3811;SDS011;1921;49.368;11.068;2022-09-17T07:53:21;48.53;;;43.90;;
3811;SDS011;1921;49.368;11.068;2022-09-17T07:55:53;48.13;;;43.73;;
3811;SDS011;1921;49.368;11.068;2022-09-17T07:58:22;48.90;;;44.30;;
3811;SDS011;1921;49.368;11.068;2022-09-17T08:01:04;48.13;;;43.70;;
3811;SDS011;1921;49.368;11.068;2022-09-17T08:03:32;49.13;;;44.20;;
3811;SDS011;1921;49.368;11.068;2022-09-17T08:06:03;48.60;;;44.10;;
3811;SDS011;1921;49.368;11.068;2022-09-17T08:08:31;47.77;;;43.37;;
3811;SDS011;1921;49.368;11.068;2022-09-17T08:10:59;48.90;;;44.40;;
3811;SDS011;1921;49.368;11.068;2022-09-17T08:13:36;49.13;;;44.03;;
3811;SDS011;1921;49.368;11.068;2022-09-17T08:16:04;47.57;;;43.20;;
3811;SDS011;1921;49.368;11.068;2022-09-17T08:18:33;48.80;;;44.20;;
3811;SDS011;1921;49.368;11.068;2022-09-17T08:21:00;49.20;;;44.17;;
3811;SDS011;1921;49.368;11.068;2022-09-17T08:23:28;47.87;;;43.47;;
3811;SDS011;1921;49.368;11.068;2022-09-17T08:25:56;48.57;;;43.93;;
3811;SDS011;1921;49.368;11.068;2022-09-17T08:28:24;50.00;;;45.10;;
3811;SDS011;1921;49.368;11.068;2022-09-17T08:30:52;50.20;;;45.10;;
3811;SDS011;1921;49.368;11.068;2022-09-17T08:33:19;48.43;;;43.93;;
3811;SDS011;1921;49.368;11.068;2022-09-17T08:35:52;48.70;;;44.17;;
3811;SDS011;1921;49.368;11.068;2022-09-17T08:38:19;55.37;;;44.33;;
3811;SDS011;1921;49.368;11.068;2022-09-17T08:47:07;49.97;;;44.93;;
3811;SDS011;1921;49.368;11.068;2022-09-17T08:49:27;49.37;;;44.20;;
3811;SDS011;1921;49.368;11.068;2022-09-17T09:06:43;49.83;;;44.83;;
3811;SDS011;1921;49.368;11.068;2022-09-17T09:09:16;48.90;;;44.30;;
3811;SDS011;1921;49.368;11.068;2022-09-17T09:11:48;48.90;;;44.30;;
3811;SDS011;1921;49.368;11.068;2022-09-17T09:14:37;49.53;;;44.47;;
3811;SDS011;1921;49.368;11.068;2022-09-17T09:17:13;50.13;;;45.20;;
3811;SDS011;1921;49.368;11.068;2022-09-17T09:19:44;53.60;;;46.03;;
3811;SDS011;1921;49.368;11.068;2022-09-17T09:30:37;52.53;;;46.57;;
3811;SDS011;1921;49.368;11.068;2022-09-17T09:33:40;50.80;;;45.50;;
3811;SDS011;1921;49.368;11.068;2022-09-17T09:36:12;50.63;;;45.43;;
3811;SDS011;1921;49.368;11.068;2022-09-17T09:41:25;50.90;;;45.80;;
3811;SDS011;1921;49.368;11.068;2022-09-17T09:44:14;56.77;;;46.80;;
3811;SDS011;1921;49.368;11.068;2022-09-17T09:49:43;51.30;;;46.13;;
3811;SDS011;1921;49.368;11.068;2022-09-17T09:56:30;50.73;;;45.50;;
3811;SDS011;1921;49.368;11.068;2022-09-17T09:58:49;50.13;;;45.23;;
3811;SDS011;1921;49.368;11.068;2022-09-17T10:01:16;50.90;;;45.90;;
3811;SDS011;1921;49.368;11.068;2022-09-17T10:03:49;49.93;;;45.03;;
3811;SDS011;1921;49.368;11.068;2022-09-17T10:06:17;50.90;;;45.63;;
3811;SDS011;1921;49.368;11.068;2022-09-17T10:11:25;50.80;;;45.63;;
3811;SDS011;1921;49.368;11.068;2022-09-17T10:14:12;50.90;;;45.80;;
3811;SDS011;1921;49.368;11.068;2022-09-17T10:22:43;50.90;;;45.70;;
3811;SDS011;1921;49.368;11.068;2022-09-17T10:25:33;51.27;;;46.07;;
3811;SDS011;1921;49.368;11.068;2022-09-17T10:28:00;51.57;;;46.17;;
3811;SDS011;1921;49.368;11.068;2022-09-17T10:30:29;52.63;;;46.83;;
3811;SDS011;1921;49.368;11.068;2022-09-17T10:33:09;53.27;;;46.60;;
3811;SDS011;1921;49.368;11.068;2022-09-17T10:35:53;52.30;;;46.80;;
3811;SDS011;1921;49.368;11.068;2022-09-17T10:38:30;53.50;;;47.63;;
3811;SDS011;1921;49.368;11.068;2022-09-17T10:43:34;51.80;;;46.40;;
3811;SDS011;1921;49.368;11.068;2022-09-17T10:46:00;51.97;;;46.57;;
3811;SDS011;1921;49.368;11.068;2022-09-17T10:48:30;52.60;;;47.00;;
3811;SDS011;1921;49.368;11.068;2022-09-17T10:51:21;52.43;;;46.77;;
3811;SDS011;1921;49.368;11.068;2022-09-17T10:54:13;52.13;;;46.37;;
3811;SDS011;1921;49.368;11.068;2022-09-17T10:56:56;50.63;;;45.43;;
3811;SDS011;1921;49.368;11.068;2022-09-17T11:02:28;50.97;;;45.60;;
3811;SDS011;1921;49.368;11.068;2022-09-17T11:08:15;50.80;;;45.60;;
3811;SDS011;1921;49.368;11.068;2022-09-17T11:22:21;51.37;;;46.03;;
3811;SDS011;1921;49.368;11.068;2022-09-17T11:25:21;52.40;;;46.90;;
3811;SDS011;1921;49.368;11.068;2022-09-17T11:36:44;52.70;;;47.00;;
3811;SDS011;1921;49.368;11.068;2022-09-17T11:39:20;75.57;;;47.37;;
3811;SDS011;1921;49.368;11.068;2022-09-17T11:41:59;61.13;;;47.53;;
3811;SDS011;1921;49.368;11.068;2022-09-17T11:44:31;58.30;;;46.57;;
3811;SDS011;1921;49.368;11.068;2022-09-17T11:47:24;52.97;;;47.17;;
3811;SDS011;1921;49.368;11.068;2022-09-17T11:50:02;53.43;;;47.50;;
3811;SDS011;1921;49.368;11.068;2022-09-17T11:56:00;52.00;;;46.50;;
3811;SDS011;1921;49.368;11.068;2022-09-17T11:58:44;52.17;;;46.77;;
3811;SDS011;1921;49.368;11.068;2022-09-17T12:01:33;52.30;;;46.70;;
3811;SDS011;1921;49.368;11.068;2022-09-17T12:04:40;52.63;;;47.03;;
3811;SDS011;1921;49.368;11.068;2022-09-17T12:07:50;52.63;;;47.03;;
3811;SDS011;1921;49.368;11.068;2022-09-17T12:14:03;51.93;;;46.53;;
3811;SDS011;1921;49.368;11.068;2022-09-17T12:16:40;52.33;;;46.83;;
3811;SDS011;1921;49.368;11.068;2022-09-17T12:19:12;53.27;;;47.47;;
3811;SDS011;1921;49.368;11.068;2022-09-17T12:22:03;52.50;;;46.90;;
3811;SDS011;1921;49.368;11.068;2022-09-17T12:25:10;52.70;;;47.00;;
3811;SDS011;1921;49.368;11.068;2022-09-17T12:31:03;53.27;;;47.40;;
3811;SDS011;1921;49.368;11.068;2022-09-17T12:33:34;54.07;;;48.17;;
3811;SDS011;1921;49.368;11.068;2022-09-17T12:39:07;53.67;;;47.67;;
3811;SDS011;1921;49.368;11.068;2022-09-17T12:53:20;55.80;;;47.53;;
3811;SDS011;1921;49.368;11.068;2022-09-17T12:55:59;53.63;;;47.70;;
3811;SDS011;1921;49.368;11.068;2022-09-17T12:58:45;53.63;;;47.80;;
3811;SDS011;1921;49.368;11.068;2022-09-17T13:01:39;53.20;;;47.40;;
3811;SDS011;1921;49.368;11.068;2022-09-17T13:12:51;52.20;;;46.70;;
3811;SDS011;1921;49.368;11.068;2022-09-17T13:15:42;52.40;;;46.90;;
3811;SDS011;1921;49.368;11.068;2022-09-17T13:18:33;51.67;;;46.37;;
3811;SDS011;1921;49.368;11.068;2022-09-17T13:26:11;51.73;;;46.33;;
3811;SDS011;1921;49.368;11.068;2022-09-17T13:28:42;53.27;;;46.70;;
3811;SDS011;1921;49.368;11.068;2022-09-17T13:31:09;52.07;;;46.67;;
3811;SDS011;1921;49.368;11.068;2022-09-17T13:33:49;53.20;;;47.40;;
3811;SDS011;1921;49.368;11.068;2022-09-17T13:36:38;52.37;;;46.80;;
3811;SDS011;1921;49.368;11.068;2022-09-17T13:42:29;54.83;;;46.60;;
3811;SDS011;1921;49.368;11.068;2022-09-17T13:45:10;51.70;;;46.30;;
3811;SDS011;1921;49.368;11.068;2022-09-17T13:53:07;48.93;;;44.23;;
3811;SDS011;1921;49.368;11.068;2022-09-17T13:55:55;48.83;;;44.23;;
3811;SDS011;1921;49.368;11.068;2022-09-17T13:58:24;48.47;;;43.83;;
3811;SDS011;1921;49.368;11.068;2022-09-17T14:01:00;48.50;;;43.90;;
3811;SDS011;1921;49.368;11.068;2022-09-17T14:19:17;49.30;;;44.50;;
3811;SDS011;1921;49.368;11.068;2022-09-17T14:22:15;50.27;;;45.27;;
3811;SDS011;1921;49.368;11.068;2022-09-17T14:24:48;50.33;;;45.23;;
3811;SDS011;1921;49.368;11.068;2022-09-17T14:41:03;53.63;;;47.27;;
3811;SDS011;1921;49.368;11.068;2022-09-17T14:46:21;52.17;;;46.67;;
3811;SDS011;1921;49.368;11.068;2022-09-17T14:51:46;52.13;;;46.67;;
3811;SDS011;1921;49.368;11.068;2022-09-17T14:54:17;52.07;;;46.47;;
3811;SDS011;1921;49.368;11.068;2022-09-17T14:56:45;52.53;;;46.97;;
3811;SDS011;1921;49.368;11.068;2022-09-17T14:59:22;52.60;;;47.00;;
3811;SDS011;1921;49.368;11.068;2022-09-17T15:04:57;53.07;;;47.27;;
3811;SDS011;1921;49.368;11.068;2022-09-17T15:07:24;52.97;;;47.27;;
3811;SDS011;1921;49.368;11.068;2022-09-17T15:09:50;53.33;;;47.53;;
3811;SDS011;1921;49.368;11.068;2022-09-17T15:12:19;53.70;;;47.80;;
3811;SDS011;1921;49.368;11.068;2022-09-17T15:14:53;53.87;;;47.97;;
3811;SDS011;1921;49.368;11.068;2022-09-17T15:17:20;59.60;;;48.77;;
3811;SDS011;1921;49.368;11.068;2022-09-17T15:19:47;54.53;;;48.10;;
3811;SDS011;1921;49.368;11.068;2022-09-17T15:22:19;55.40;;;48.00;;
3811;SDS011;1921;49.368;11.068;2022-09-17T15:24:53;55.80;;;48.33;;
3811;SDS011;1921;49.368;11.068;2022-09-17T15:30:19;53.37;;;47.57;;
3811;SDS011;1921;49.368;11.068;2022-09-17T15:32:49;52.83;;;47.20;;
3811;SDS011;1921;49.368;11.068;2022-09-17T15:37:55;52.83;;;47.23;;
3811;SDS011;1921;49.368;11.068;2022-09-17T15:40:43;53.40;;;47.60;;
3811;SDS011;1921;49.368;11.068;2022-09-17T15:45:45;54.10;;;47.60;;
3811;SDS011;1921;49.368;11.068;2022-09-17T15:50:56;55.10;;;48.10;;
3811;SDS011;1921;49.368;11.068;2022-09-17T15:53:25;53.83;;;47.93;;
3811;SDS011;1921;49.368;11.068;2022-09-17T16:08:46;52.53;;;46.83;;
3811;SDS011;1921;49.368;11.068;2022-09-17T16:11:25;52.33;;;46.83;;
3811;SDS011;1921;49.368;11.068;2022-09-17T16:13:59;52.67;;;47.07;;
3811;SDS011;1921;49.368;11.068;2022-09-17T16:16:35;52.47;;;46.87;;
3811;SDS011;1921;49.368;11.068;2022-09-17T16:19:04;53.17;;;47.47;;
3811;SDS011;1921;49.368;11.068;2022-09-17T16:21:30;52.73;;;47.03;;
3811;SDS011;1921;49.368;11.068;2022-09-17T16:23:56;52.87;;;47.27;;
3811;SDS011;1921;49.368;11.068;2022-09-17T16:26:24;52.50;;;46.90;;
3811;SDS011;1921;49.368;11.068;2022-09-17T16:29:01;52.23;;;46.73;;
3811;SDS011;1921;49.368;11.068;2022-09-17T16:31:30;52.27;;;46.67;;
3811;SDS011;1921;49.368;11.068;2022-09-17T16:33:57;52.20;;;46.60;;
3811;SDS011;1921;49.368;11.068;2022-09-17T16:36:24;51.93;;;46.43;;
3811;SDS011;1921;49.368;11.068;2022-09-17T16:38:51;51.43;;;46.13;;
3811;SDS011;1921;49.368;11.068;2022-09-17T16:41:17;50.90;;;45.70;;
3811;SDS011;1921;49.368;11.068;2022-09-17T16:43:42;51.20;;;45.93;;
3811;SDS011;1921;49.368;11.068;2022-09-17T16:46:09;50.93;;;45.80;;
3811;SDS011;1921;49.368;11.068;2022-09-17T16:48:35;50.80;;;45.60;;
3811;SDS011;1921;49.368;11.068;2022-09-17T16:51:08;50.67;;;45.57;;
3811;SDS011;1921;49.368;11.068;2022-09-17T16:53:36;50.50;;;45.17;;
3811;SDS011;1921;49.368;11.068;2022-09-17T16:56:06;50.47;;;45.27;;
3811;SDS011;1921;49.368;11.068;2022-09-17T16:58:36;49.77;;;44.87;;
3811;SDS011;1921;49.368;11.068;2022-09-17T17:01:09;50.37;;;45.27;;
3811;SDS011;1921;49.368;11.068;2022-09-17T17:03:39;49.93;;;44.93;;
3811;SDS011;1921;49.368;11.068;2022-09-17T17:06:13;50.17;;;45.17;;
3811;SDS011;1921;49.368;11.068;2022-09-17T17:08:44;50.10;;;45.20;;
3811;SDS011;1921;49.368;11.068;2022-09-17T17:11:09;50.07;;;45.07;;
3811;SDS011;1921;49.368;11.068;2022-09-17T17:13:35;50.00;;;44.90;;
3811;SDS011;1921;49.368;11.068;2022-09-17T17:16:05;50.40;;;45.30;;
3811;SDS011;1921;49.368;11.068;2022-09-17T17:18:40;50.53;;;45.10;;
3811;SDS011;1921;49.368;11.068;2022-09-17T17:21:08;50.07;;;45.07;;
3811;SDS011;1921;49.368;11.068;2022-09-17T17:23:36;50.50;;;45.30;;
3811;SDS011;1921;49.368;11.068;2022-09-17T17:26:02;49.37;;;44.67;;
3811;SDS011;1921;49.368;11.068;2022-09-17T17:28:34;48.80;;;44.20;;
3811;SDS011;1921;49.368;11.068;2022-09-17T17:31:00;48.37;;;43.77;;
3811;SDS011;1921;49.368;11.068;2022-09-17T17:33:28;47.90;;;43.50;;
3811;SDS011;1921;49.368;11.068;2022-09-17T17:35:59;48.30;;;43.70;;
3811;SDS011;1921;49.368;11.068;2022-09-17T17:38:28;48.43;;;43.93;;
3811;SDS011;1921;49.368;11.068;2022-09-17T17:41:04;47.77;;;43.43;;
3811;SDS011;1921;49.368;11.068;2022-09-17T17:43:34;47.10;;;42.90;;
3811;SDS011;1921;49.368;11.068;2022-09-17T17:46:04;47.90;;;43.60;;
3811;SDS011;1921;49.368;11.068;2022-09-17T17:48:35;47.47;;;43.27;;
3811;SDS011;1921;49.368;11.068;2022-09-17T17:51:02;48.23;;;43.93;;
3811;SDS011;1921;49.368;11.068;2022-09-17T17:53:33;48.07;;;43.77;;
3811;SDS011;1921;49.368;11.068;2022-09-17T17:56:00;47.23;;;42.93;;
3811;SDS011;1921;49.368;11.068;2022-09-17T17:58:31;48.73;;;44.23;;
3811;SDS011;1921;49.368;11.068;2022-09-17T18:00:57;48.47;;;44.10;;
3811;SDS011;1921;49.368;11.068;2022-09-17T18:03:23;48.43;;;44.13;;
3811;SDS011;1921;49.368;11.068;2022-09-17T18:05:52;48.20;;;43.83;;
3811;SDS011;1921;49.368;11.068;2022-09-17T18:08:22;48.50;;;44.10;;
3811;SDS011;1921;49.368;11.068;2022-09-17T18:10:52;48.63;;;43.93;;
3811;SDS011;1921;49.368;11.068;2022-09-17T18:13:20;47.80;;;43.60;;
3811;SDS011;1921;49.368;11.068;2022-09-17T18:15:55;47.13;;;43.00;;
3811;SDS011;1921;49.368;11.068;2022-09-17T18:18:23;47.80;;;43.60;;
3811;SDS011;1921;49.368;11.068;2022-09-17T18:20:58;51.93;;;44.60;;
3811;SDS011;1921;49.368;11.068;2022-09-17T18:23:30;47.53;;;43.33;;
3811;SDS011;1921;49.368;11.068;2022-09-17T18:25:59;49.13;;;44.63;;
3811;SDS011;1921;49.368;11.068;2022-09-17T18:28:26;48.30;;;44.00;;
3811;SDS011;1921;49.368;11.068;2022-09-17T18:30:54;49.20;;;44.60;;
3811;SDS011;1921;49.368;11.068;2022-09-17T18:33:24;48.07;;;43.83;;
3811;SDS011;1921;49.368;11.068;2022-09-17T18:35:51;47.63;;;43.33;;
3811;SDS011;1921;49.368;11.068;2022-09-17T18:38:24;48.53;;;43.80;;
3811;SDS011;1921;49.368;11.068;2022-09-17T18:40:50;49.30;;;44.50;;
3811;SDS011;1921;49.368;11.068;2022-09-17T18:43:16;48.17;;;43.93;;
3811;SDS011;1921;49.368;11.068;2022-09-17T18:45:42;48.60;;;44.13;;
3811;SDS011;1921;49.368;11.068;2022-09-17T18:48:08;46.20;;;42.20;;
3811;SDS011;1921;49.368;11.068;2022-09-17T18:50:34;47.43;;;43.13;;
3811;SDS011;1921;49.368;11.068;2022-09-17T18:53:00;47.40;;;43.10;;
3811;SDS011;1921;49.368;11.068;2022-09-17T18:55:26;47.20;;;43.07;;
3811;SDS011;1921;49.368;11.068;2022-09-17T18:57:53;47.60;;;43.40;;